Lynch, Nebraska
Current Conditions -  °F | °C
As of 7:15 PM on Sunday 21 Dec 2014 (Local Time) from KONL Reporting Station
Haze Haze  
Wind Chill: 30°   Ceiling: 5000
Heat Index: 37°   Visibility: 5mi
Dew Point: 37°   Wind: 12mph
Humidity: 97%   Direction: 160°SSE
Pressure: 29.48"   Gusts: NA
Location:  42.83°N, 98.47°W
Report Text: KONL 220115Z AUTO 16010KT 5SM BR SCT006 BKN050 OVC070 03/03 A2948 RMK AO2 T00300026
Loading
Personal Weather Stations






























Interactive Weather Map New forecast layout! Learn more

10-Day Weather Forecast

Advertisements
Track Severe Weather on mobile